»·PEaware :: HL1215 L52-L88

HL1215 :: L52-L88

FLIGHT INFORMATION

Flight Status: Arrived
Operator: Privately registered:
Republic of Korea
More flights under this callsign
Pilot: Joongjae K. (26393)
Aircraft: CESSNA 152 AEROBAT
(C152)
More flights by this aircraft type
Origin: L52 Oceano Co
United States
Destination: L88 New Cuyama
United States
More flights between these airports :: More routes between these airports
Route: WYNNR
File this flight plan on PilotEdge
Remarks: +CW /
Altitude:
(Current/Filed)
3,500ft
Speed:
(Current/Filed)
120kts
Departed: 28-Sep-19 10:40 AM
Arrived: 28-Sep-19 11:08 AM
Distance/Time
Traveled:
47nm/0:28
Distance/Time
To Go:
Arrived

Flight Plot

Page will automatically refresh every two minutes.


Map Options




Map Legend


Flown Route
Filed Route
Departure Airport
Arrival Airport
Navaid (VOR, NDB)
Fix

Horizontal Profiles

Position Reports

Time Latitude Longitude Heading Altitude Ground
Speed
28-Sep-19 10:07 35.103538 -120.624824 32 17ft 0kts
28-Sep-19 10:08 35.103538 -120.624824 32 17ft 0kts
28-Sep-19 10:09 35.103538 -120.624824 32 17ft 0kts
28-Sep-19 10:10 35.103538 -120.624824 32 17ft 0kts
28-Sep-19 10:11 35.103538 -120.624824 32 17ft 0kts
28-Sep-19 10:12 35.103538 -120.624824 32 17ft 0kts
28-Sep-19 10:13 35.103538 -120.624824 32 17ft 0kts
28-Sep-19 10:14 35.103538 -120.624824 32 17ft 0kts
28-Sep-19 10:15 35.103538 -120.624824 32 17ft 0kts
28-Sep-19 10:16 35.103538 -120.624824 32 17ft 0kts
28-Sep-19 10:17 35.103538 -120.624824 32 17ft 0kts
28-Sep-19 10:18 35.103538 -120.624824 32 17ft 0kts
28-Sep-19 10:19 35.103538 -120.624824 32 17ft 0kts
28-Sep-19 10:20 35.103538 -120.624824 32 17ft 0kts
28-Sep-19 10:21 35.103538 -120.624824 32 17ft 0kts
28-Sep-19 10:25 35.103538 -120.624824 32 17ft 0kts
28-Sep-19 10:26 35.103538 -120.624824 32 17ft 0kts
28-Sep-19 10:27 35.103538 -120.624824 32 17ft 0kts
28-Sep-19 10:28 35.103538 -120.624824 32 17ft 0kts
28-Sep-19 10:29 35.103538 -120.624824 32 17ft 0kts
28-Sep-19 10:30 35.103538 -120.624824 32 17ft 0kts
28-Sep-19 10:31 35.103538 -120.624824 32 17ft 0kts
28-Sep-19 10:32 35.103538 -120.624824 32 17ft 0kts
28-Sep-19 10:33 35.103538 -120.624824 32 17ft 0kts
28-Sep-19 10:34 35.103538 -120.624824 32 17ft 0kts
28-Sep-19 10:35 35.103538 -120.624824 32 17ft 0kts
28-Sep-19 10:36 35.103538 -120.624824 32 17ft 0kts
28-Sep-19 10:37 35.103140 -120.625387 133 17ft 3kts
28-Sep-19 10:38 35.103043 -120.625200 120 17ft 11kts
28-Sep-19 10:39 35.093124 -120.605818 119 376ft 85kts
28-Sep-19 10:40 35.087776 -120.577116 95 843ft 103kts
28-Sep-19 10:41 35.082924 -120.540152 97 1162ft 114kts
28-Sep-19 10:42 35.076647 -120.501499 94 1440ft 118kts
28-Sep-19 10:43 35.082854 -120.464702 72 1945ft 109kts
28-Sep-19 10:44 35.080272 -120.425281 104 2095ft 110kts
28-Sep-19 10:45 35.072754 -120.392232 103 2654ft 109kts
28-Sep-19 10:46 35.063820 -120.352186 103 2655ft 127kts
28-Sep-19 10:47 35.054597 -120.310493 104 2653ft 127kts
28-Sep-19 10:48 35.045526 -120.269461 104 2746ft 124kts
28-Sep-19 10:49 35.037247 -120.227682 102 2754ft 127kts
28-Sep-19 10:50 35.028918 -120.186026 102 2754ft 126kts
28-Sep-19 10:51 35.020362 -120.144868 102 2755ft 124kts
28-Sep-19 10:52 35.011844 -120.105191 102 2950ft 113kts
28-Sep-19 10:53 35.004537 -120.069701 96 3515ft 103kts
28-Sep-19 10:54 34.998871 -120.035983 94 4052ft 100kts
28-Sep-19 10:55 34.991991 -120.005441 101 4744ft 92kts
28-Sep-19 10:56 34.985263 -119.977638 101 5266ft 108kts
28-Sep-19 10:57 34.976261 -119.935859 101 4669ft 130kts
28-Sep-19 10:58 34.967173 -119.892193 101 3683ft 133kts
28-Sep-19 10:59 34.959029 -119.852996 101 3453ft 104kts
28-Sep-19 11:00 34.951839 -119.819787 101 3449ft 96kts
28-Sep-19 11:01 34.944791 -119.785571 100 2974ft 103kts
28-Sep-19 11:02 34.938767 -119.755321 100 2954ft 85kts
28-Sep-19 11:03 34.932965 -119.726881 100 2950ft 89kts
28-Sep-19 11:04 34.927064 -119.697465 100 2938ft 86kts
28-Sep-19 11:05 34.921964 -119.672330 99 2937ft 71kts
28-Sep-19 11:06 34.934141 -119.671587 299 2532ft 75kts
28-Sep-19 11:07 34.941074 -119.688368 297 2165ft 23kts
28-Sep-19 11:08 34.942640 -119.690638 129 2161ft 6kts
28-Sep-19 11:09 34.942615 -119.690453 17 2162ft 0kts
28-Sep-19 11:10 34.942605 -119.690465 42 2162ft 1kts
28-Sep-19 11:11 34.942612 -119.690467 21 2162ft 0kts
28-Sep-19 11:12 34.942612 -119.690467 21 2162ft 0kts
28-Sep-19 11:13 34.942612 -119.690467 21 2162ft 0kts
28-Sep-19 11:14 34.942612 -119.690467 21 2162ft 0kts
28-Sep-19 11:15 34.942612 -119.690467 21 2162ft 0kts
28-Sep-19 11:16 34.942612 -119.690467 21 2162ft 0kts
28-Sep-19 11:17 34.942612 -119.690467 21 2162ft 0kts
28-Sep-19 11:18 34.942612 -119.690467 21 2162ft 0kts
28-Sep-19 11:19 34.942612 -119.690467 21 2162ft 0kts
28-Sep-19 11:20 34.942612 -119.690467 21 2162ft 0kts
28-Sep-19 11:21 34.942612 -119.690467 21 2162ft 0kts

Navigation Log

Ident Type
Flight plan parsing failed, navigation log unavailable